createdAt,value
2018-12-30T00:00:08.333Z,238.75
2018-12-30T00:02:41.268Z,245.75
2018-12-30T00:05:13.242Z,259.75
2018-12-30T00:07:44.700Z,250.50
2018-12-30T00:10:16.502Z,255.25
2018-12-30T00:12:47.882Z,247.25
2018-12-30T00:15:19.962Z,260.75
2018-12-30T00:17:51.771Z,256.00
2018-12-30T00:20:23.346Z,270.75
2018-12-30T00:22:54.714Z,242.00
2018-12-30T00:25:26.131Z,279.75
2018-12-30T00:27:57.786Z,259.50
2018-12-30T00:30:29.570Z,248.00
2018-12-30T00:33:01.049Z,243.75
2018-12-30T00:35:32.521Z,242.50
2018-12-30T00:38:03.924Z,259.75
2018-12-30T00:40:35.225Z,265.00
2018-12-30T00:43:06.622Z,264.50
2018-12-30T00:45:38.122Z,258.75
2018-12-30T00:48:09.937Z,271.00
2018-12-30T00:50:41.659Z,269.75
2018-12-30T00:53:13.057Z,266.00
2018-12-30T00:55:44.287Z,271.00
2018-12-30T00:58:15.745Z,259.00
2018-12-30T01:00:47.585Z,261.25
2018-12-30T01:03:19.230Z,279.25
2018-12-30T01:05:51.822Z,266.25
2018-12-30T01:08:23.380Z,279.50
2018-12-30T01:10:54.709Z,271.50
2018-12-30T01:13:26.832Z,265.50
2018-12-30T01:15:58.169Z,255.00
2018-12-30T01:18:30.127Z,285.75
2018-12-30T01:21:01.535Z,292.25
2018-12-30T01:23:33.284Z,275.00
2018-12-30T01:26:04.740Z,277.00
2018-12-30T01:28:36.173Z,262.25
2018-12-30T01:31:07.513Z,254.50
2018-12-30T01:33:39.247Z,241.50
2018-12-30T01:36:10.965Z,279.00
2018-12-30T01:38:42.430Z,289.25
2018-12-30T01:41:13.790Z,292.00
2018-12-30T01:43:44.896Z,296.75
2018-12-30T01:46:16.538Z,290.75
2018-12-30T01:48:48.290Z,282.75
2018-12-30T01:51:20.012Z,291.50
2018-12-30T01:53:51.712Z,264.25
2018-12-30T01:56:23.433Z,303.00
2018-12-30T01:58:55.170Z,284.25
2018-12-30T02:01:26.434Z,317.25
2018-12-30T02:03:57.745Z,307.25
2018-12-30T02:06:29.342Z,301.75
2018-12-30T02:09:01.217Z,287.00
2018-12-30T02:11:34.096Z,308.75
2018-12-30T02:14:05.583Z,284.50
2018-12-30T02:16:37.046Z,330.00
2018-12-30T02:19:09.405Z,291.75
2018-12-30T02:21:41.134Z,354.75
2018-12-30T02:24:12.808Z,327.00
2018-12-30T02:26:44.214Z,342.50
2018-12-30T02:29:15.801Z,342.75
2018-12-30T02:31:47.207Z,343.50
2018-12-30T02:34:22.222Z,363.25
2018-12-30T02:36:53.724Z,369.00
2018-12-30T02:39:24.923Z,369.00
2018-12-30T02:41:56.758Z,367.25
2018-12-30T02:44:28.387Z,363.75
2018-12-30T02:47:00.578Z,377.25
2018-12-30T02:49:32.422Z,376.75
2018-12-30T02:52:03.955Z,366.75
2018-12-30T02:54:35.560Z,386.00
2018-12-30T02:57:07.185Z,413.50
2018-12-30T02:59:38.630Z,438.40
2018-12-30T03:02:10.301Z,441.00
2018-12-30T03:04:41.612Z,457.40
2018-12-30T03:07:15.541Z,454.00
2018-12-30T03:09:47.266Z,467.20
2018-12-30T03:12:18.596Z,475.00
2018-12-30T03:14:49.822Z,500.40
2018-12-30T03:17:21.455Z,519.80
2018-12-30T03:19:53.101Z,562.20
2018-12-30T03:22:24.640Z,582.17
2018-12-30T03:24:56.112Z,597.00
2018-12-30T03:27:27.893Z,574.50
2018-12-30T03:29:59.244Z,590.00
2018-12-30T03:32:31.080Z,542.00
2018-12-30T03:35:02.677Z,512.80
2018-12-30T03:37:33.962Z,550.00
2018-12-30T03:40:06.162Z,560.40
2018-12-30T03:42:37.473Z,559.40
2018-12-30T03:45:11.977Z,496.80
2018-12-30T03:47:43.767Z,527.75
2018-12-30T03:50:16.488Z,485.40
2018-12-30T03:52:47.907Z,477.60
2018-12-30T03:55:19.217Z,464.20
2018-12-30T03:57:50.854Z,463.20
2018-12-30T04:00:22.018Z,450.00
2018-12-30T04:02:53.619Z,448.40
2018-12-30T04:05:24.968Z,461.20
2018-12-30T04:07:56.652Z,429.75
2018-12-30T04:10:28.110Z,409.25
2018-12-30T04:12:59.842Z,398.75
2018-12-30T04:15:31.198Z,387.50
2018-12-30T04:18:02.751Z,370.00
2018-12-30T04:20:34.423Z,402.25
2018-12-30T04:23:05.700Z,359.75
2018-12-30T04:25:37.437Z,371.75
2018-12-30T04:28:11.948Z,354.50
2018-12-30T04:30:43.326Z,352.00
2018-12-30T04:33:14.899Z,369.50
2018-12-30T04:35:46.569Z,350.00
2018-12-30T04:38:18.136Z,353.25
2018-12-30T04:40:49.545Z,349.25
2018-12-30T04:43:20.995Z,365.25
2018-12-30T04:45:52.436Z,357.00
2018-12-30T04:48:24.263Z,344.50
2018-12-30T04:50:56.180Z,323.75
2018-12-30T04:53:27.488Z,347.00
2018-12-30T04:55:58.890Z,304.25
2018-12-30T04:58:30.629Z,318.25
2018-12-30T05:01:02.360Z,317.00
2018-12-30T05:03:33.864Z,311.00
2018-12-30T05:06:05.111Z,296.75
2018-12-30T05:08:36.517Z,302.00
2018-12-30T05:11:07.819Z,292.25
2018-12-30T05:13:39.010Z,316.25
2018-12-30T05:16:10.823Z,279.75
2018-12-30T05:18:42.360Z,275.75
2018-12-30T05:21:14.356Z,287.75
2018-12-30T05:23:45.877Z,288.00
2018-12-30T05:26:17.087Z,295.25
2018-12-30T05:28:48.524Z,284.50
2018-12-30T05:31:20.468Z,288.00
2018-12-30T05:33:52.007Z,290.75
2018-12-30T05:36:23.652Z,286.75
2018-12-30T05:38:55.154Z,287.50
2018-12-30T05:41:26.397Z,277.75
2018-12-30T05:43:57.837Z,271.75
2018-12-30T05:46:28.924Z,275.50
2018-12-30T05:49:00.409Z,241.75
2018-12-30T05:51:32.194Z,246.50
2018-12-30T05:54:03.816Z,240.00
2018-12-30T05:56:35.106Z,268.50
2018-12-30T05:59:06.565Z,248.25
2018-12-30T06:01:37.710Z,276.25
2018-12-30T06:04:09.582Z,270.75
2018-12-30T06:06:41.224Z,275.00
2018-12-30T06:09:12.532Z,263.00
2018-12-30T06:11:43.730Z,278.25
2018-12-30T06:14:15.026Z,300.25
2018-12-30T06:16:46.684Z,312.00
2018-12-30T06:19:18.227Z,307.25
2018-12-30T06:21:49.932Z,307.00
2018-12-30T06:24:22.190Z,297.75
2018-12-30T06:26:53.615Z,291.25
2018-12-30T06:29:25.033Z,269.00
2018-12-30T06:31:56.569Z,260.25
2018-12-30T06:34:28.063Z,292.75
2018-12-30T06:36:59.430Z,270.75
2018-12-30T06:39:30.929Z,274.75
2018-12-30T06:42:02.361Z,270.50
2018-12-30T06:44:33.967Z,285.00
2018-12-30T06:47:05.573Z,271.25
2018-12-30T06:49:36.910Z,247.25
2018-12-30T06:52:08.697Z,255.00
2018-12-30T06:54:40.459Z,252.75
2018-12-30T06:57:11.832Z,251.50
2018-12-30T06:59:43.030Z,267.00
2018-12-30T07:02:14.546Z,251.00
2018-12-30T07:04:45.967Z,234.75
2018-12-30T07:07:17.177Z,233.50
2018-12-30T07:09:48.507Z,234.00
2018-12-30T07:12:20.039Z,241.25
2018-12-30T07:14:51.635Z,227.25
2018-12-30T07:17:22.885Z,234.00
2018-12-30T07:19:54.288Z,231.50
2018-12-30T07:22:25.951Z,223.50
2018-12-30T07:24:57.299Z,222.00
2018-12-30T07:27:28.876Z,221.25
2018-12-30T07:30:00.624Z,230.00
2018-12-30T07:32:31.894Z,228.75
2018-12-30T07:35:03.513Z,233.75
2018-12-30T07:37:35.042Z,218.75
2018-12-30T07:40:06.669Z,231.50
2018-12-30T07:42:38.155Z,219.00
2018-12-30T07:45:09.845Z,219.25
2018-12-30T07:47:41.034Z,229.25
2018-12-30T07:50:12.261Z,195.25
2018-12-30T07:52:44.291Z,234.00
2018-12-30T07:55:17.310Z,206.50
2018-12-30T07:57:48.750Z,206.75
2018-12-30T08:00:20.146Z,191.00
2018-12-30T08:02:52.544Z,213.25
2018-12-30T08:05:24.344Z,192.50
2018-12-30T08:07:55.974Z,194.75
2018-12-30T08:10:27.830Z,184.50
2018-12-30T08:12:59.373Z,215.50
2018-12-30T08:15:30.810Z,197.75
2018-12-30T08:18:02.239Z,200.25
2018-12-30T08:20:33.577Z,200.75
2018-12-30T08:23:05.491Z,200.50
2018-12-30T08:25:37.117Z,192.25
2018-12-30T08:28:09.084Z,181.40
2018-12-30T08:30:40.456Z,181.00
2018-12-30T08:33:12.063Z,168.00
2018-12-30T08:35:43.613Z,201.80
2018-12-30T08:38:15.029Z,194.20
2018-12-30T08:40:46.678Z,166.40
2018-12-30T08:43:18.310Z,164.40
2018-12-30T08:45:49.686Z,190.60
2018-12-30T08:48:21.390Z,176.60
2018-12-30T08:50:53.007Z,182.00
2018-12-30T08:53:29.316Z,171.80
2018-12-30T08:55:57.937Z,181.40
2018-12-30T08:58:29.185Z,178.20
2018-12-30T09:01:00.504Z,161.40
2018-12-30T09:03:32.249Z,162.20
2018-12-30T09:06:03.613Z,173.40
2018-12-30T09:08:34.757Z,167.80
2018-12-30T09:14:05.274Z,165.00
2018-12-30T09:16:36.731Z,176.00
2018-12-30T09:19:08.303Z,165.60
2018-12-30T09:21:39.848Z,152.80
2018-12-30T09:24:11.513Z,178.40
2018-12-30T09:26:42.966Z,174.60
2018-12-30T09:29:14.800Z,182.40
2018-12-30T09:31:46.309Z,180.20
2018-12-30T09:34:17.499Z,174.00
2018-12-30T09:36:49.033Z,160.60
2018-12-30T09:39:20.216Z,178.00
2018-12-30T09:41:51.848Z,173.80
2018-12-30T09:44:23.096Z,166.80
2018-12-30T09:46:54.678Z,187.80
2018-12-30T09:49:26.043Z,156.40
2018-12-30T09:51:58.749Z,162.60
2018-12-30T09:54:31.274Z,167.80
2018-12-30T09:57:03.411Z,168.40
2018-12-30T09:59:34.754Z,165.00
2018-12-30T10:02:06.169Z,126.80
2018-12-30T10:04:37.359Z,163.60
2018-12-30T10:07:08.603Z,150.80
2018-12-30T10:09:39.925Z,142.80
2018-12-30T10:12:11.708Z,166.00
2018-12-30T10:14:42.779Z,146.60
2018-12-30T10:17:14.278Z,160.40
2018-12-30T10:19:45.439Z,155.00
2018-12-30T10:22:17.305Z,150.40
2018-12-30T10:24:49.360Z,151.80
2018-12-30T10:27:20.881Z,153.80
2018-12-30T10:29:52.087Z,138.20
2018-12-30T10:32:23.719Z,143.60
2018-12-30T10:34:55.073Z,150.80
2018-12-30T10:37:26.493Z,150.40
2018-12-30T10:39:57.910Z,144.80
2018-12-30T10:42:29.480Z,146.20
2018-12-30T10:45:01.170Z,126.00
2018-12-30T10:47:33.956Z,131.80
2018-12-30T10:50:05.399Z,147.00
2018-12-30T10:52:36.808Z,138.00
2018-12-30T10:55:09.066Z,145.00
2018-12-30T10:57:40.962Z,148.80
2018-12-30T11:00:12.224Z,140.60
2018-12-30T11:02:43.573Z,143.00
2018-12-30T11:05:14.658Z,146.00
2018-12-30T11:07:46.161Z,148.80
2018-12-30T11:10:17.521Z,149.20
2018-12-30T11:12:48.905Z,150.80
2018-12-30T11:15:20.181Z,157.60
2018-12-30T11:17:51.571Z,161.00
2018-12-30T11:20:23.026Z,157.40
2018-12-30T11:22:54.359Z,171.80
2018-12-30T11:25:26.224Z,171.40
2018-12-30T11:27:57.563Z,168.60
2018-12-30T11:30:28.853Z,165.40
2018-12-30T11:33:00.403Z,173.20
2018-12-30T11:35:31.855Z,159.00
2018-12-30T11:38:03.179Z,154.40
2018-12-30T11:40:34.657Z,157.20
2018-12-30T11:43:05.947Z,163.40
2018-12-30T11:45:37.310Z,149.20
2018-12-30T11:48:08.822Z,152.80
2018-12-30T11:50:40.490Z,155.00
2018-12-30T11:53:12.093Z,143.80
2018-12-30T11:55:43.910Z,160.00
2018-12-30T11:58:15.758Z,154.20
2018-12-30T12:00:47.137Z,164.00
2018-12-30T12:03:18.663Z,164.60
2018-12-30T12:05:50.459Z,160.20
2018-12-30T12:08:22.109Z,160.40
2018-12-30T12:10:53.346Z,151.80
2018-12-30T12:13:24.727Z,158.80
2018-12-30T12:15:56.247Z,183.00
2018-12-30T12:18:27.811Z,167.40
2018-12-30T12:20:59.212Z,183.25
2018-12-30T12:23:30.753Z,190.50
2018-12-30T12:26:02.726Z,188.25
2018-12-30T12:28:35.821Z,197.75
2018-12-30T12:31:07.094Z,218.00
2018-12-30T12:33:38.584Z,245.25
2018-12-30T12:36:09.767Z,427.00
2018-12-30T12:38:41.416Z,470.40
2018-12-30T12:41:12.699Z,412.25
2018-12-30T12:43:44.192Z,354.50
2018-12-30T12:46:15.391Z,332.00
2018-12-30T12:48:46.873Z,313.25
2018-12-30T12:51:18.360Z,286.50
2018-12-30T12:53:49.696Z,303.75
2018-12-30T12:56:21.395Z,338.75
2018-12-30T12:58:52.572Z,324.25
2018-12-30T13:01:23.749Z,301.50
2018-12-30T13:03:55.292Z,316.50
2018-12-30T13:06:27.421Z,288.75
2018-12-30T13:09:01.018Z,303.25
2018-12-30T13:11:33.704Z,290.75
2018-12-30T13:14:05.610Z,297.75
2018-12-30T13:16:37.306Z,303.75
2018-12-30T13:19:09.269Z,311.75
2018-12-30T13:21:40.904Z,308.00
2018-12-30T13:24:12.344Z,301.75
2018-12-30T13:26:44.327Z,325.75
2018-12-30T13:29:16.143Z,307.50
2018-12-30T13:31:47.698Z,334.75
2018-12-30T13:34:19.504Z,332.25
2018-12-30T13:36:52.497Z,337.50
2018-12-30T13:39:25.492Z,336.50
2018-12-30T13:41:57.353Z,340.75
2018-12-30T13:44:29.294Z,360.75
2018-12-30T13:47:01.954Z,333.00
2018-12-30T13:49:34.656Z,345.00
2018-12-30T13:52:06.086Z,350.50
2018-12-30T13:54:37.625Z,371.75
2018-12-30T13:57:09.879Z,367.25
2018-12-30T13:59:44.978Z,362.75
2018-12-30T14:02:16.450Z,387.25
2018-12-30T14:04:47.640Z,390.50
2018-12-30T14:07:19.468Z,396.50
2018-12-30T14:09:50.742Z,393.80
2018-12-30T14:12:22.038Z,434.00
2018-12-30T14:14:53.481Z,436.60
2018-12-30T14:17:24.860Z,441.25
2018-12-30T14:19:56.422Z,438.20
2018-12-30T14:22:28.150Z,434.50
2018-12-30T14:24:59.808Z,474.00
2018-12-30T14:27:31.830Z,511.80
2018-12-30T14:30:03.537Z,508.00
2018-12-30T14:32:36.300Z,488.00
2018-12-30T14:35:07.920Z,486.60
2018-12-30T14:37:40.642Z,503.00
2018-12-30T14:40:12.404Z,480.40
2018-12-30T14:42:44.357Z,519.80
2018-12-30T14:45:16.001Z,452.00
2018-12-30T14:47:47.771Z,509.60
2018-12-30T14:50:19.507Z,527.17
2018-12-30T14:52:52.054Z,539.00
2018-12-30T14:55:23.685Z,534.20
2018-12-30T14:57:56.015Z,539.60
2018-12-30T15:00:27.723Z,567.80
2018-12-30T15:03:02.752Z,577.80
2018-12-30T15:05:34.403Z,568.60
2018-12-30T15:08:06.191Z,585.00
2018-12-30T15:10:38.547Z,602.80
2018-12-30T15:13:10.146Z,580.40
2018-12-30T15:15:45.629Z,613.40
2018-12-30T15:18:17.208Z,626.40
2018-12-30T15:20:48.466Z,617.60
2018-12-30T15:23:19.685Z,588.40
2018-12-30T15:25:51.016Z,618.80
2018-12-30T15:28:22.924Z,641.60
2018-12-30T15:30:54.862Z,663.60
2018-12-30T15:33:26.810Z,631.60
2018-12-30T15:35:58.459Z,632.40
2018-12-30T15:38:30.204Z,650.00
2018-12-30T15:41:01.730Z,625.67
2018-12-30T15:43:33.224Z,635.67
2018-12-30T15:46:04.774Z,672.67
2018-12-30T15:48:36.219Z,685.83
2018-12-30T15:51:08.003Z,699.00
2018-12-30T15:53:39.714Z,688.50
2018-12-30T15:56:11.314Z,688.17
2018-12-30T15:58:43.710Z,699.83
2018-12-30T16:01:15.629Z,687.50
2018-12-30T16:03:47.551Z,686.17
2018-12-30T16:06:19.015Z,780.40
2018-12-30T16:08:50.697Z,794.40
2018-12-30T17:02:27.942Z,749.17
2018-12-30T17:05:00.282Z,764.00
2018-12-30T17:07:32.136Z,768.00
2018-12-30T17:10:03.425Z,770.60
2018-12-30T17:12:35.047Z,741.17
2018-12-30T17:15:07.082Z,750.00
2018-12-30T17:17:39.080Z,744.17
2018-12-30T17:20:10.606Z,762.83
2018-12-30T17:22:42.203Z,718.67
2018-12-30T17:25:13.730Z,763.83
2018-12-30T17:27:45.160Z,766.00
2018-12-30T17:30:16.644Z,735.83
2018-12-30T17:32:48.000Z,739.17
2018-12-30T17:35:20.096Z,702.50
2018-12-30T17:37:51.523Z,724.33
2018-12-30T17:40:22.648Z,729.33
2018-12-30T17:42:54.341Z,715.83
2018-12-30T17:45:25.820Z,711.80
2018-12-30T17:47:57.553Z,728.33
2018-12-30T17:50:28.885Z,705.83
2018-12-30T17:53:00.808Z,754.50
2018-12-30T17:55:32.438Z,721.33
2018-12-30T17:58:03.936Z,685.40
2018-12-30T18:00:36.295Z,719.00
2018-12-30T18:03:08.157Z,712.00
2018-12-30T18:05:40.093Z,725.40
2018-12-30T18:08:11.737Z,706.80
2018-12-30T18:10:44.334Z,704.60
2018-12-30T18:13:15.844Z,751.40
2018-12-30T18:15:48.282Z,747.83
2018-12-30T18:18:20.665Z,705.00
2018-12-30T18:20:51.970Z,718.40
2018-12-30T18:23:23.542Z,717.80
2018-12-30T18:25:58.737Z,710.40
2018-12-30T18:28:28.452Z,730.80
2018-12-30T18:31:00.170Z,732.60
2018-12-30T18:33:31.957Z,772.83
2018-12-30T18:36:04.021Z,735.00
2018-12-30T18:38:35.485Z,770.33
2018-12-30T18:41:06.985Z,756.83
2018-12-30T18:43:38.399Z,783.83
2018-12-30T18:46:09.844Z,762.20
2018-12-30T18:48:41.531Z,754.33
2018-12-30T18:51:12.883Z,734.67
2018-12-30T18:53:44.323Z,683.40
2018-12-30T18:56:15.774Z,681.60
2018-12-30T18:58:47.386Z,678.40
2018-12-30T19:01:18.759Z,663.20
2018-12-30T19:03:50.325Z,663.00
2018-12-30T19:06:22.432Z,671.80
2018-12-30T19:08:54.333Z,676.60
2018-12-30T19:11:25.671Z,686.20
2018-12-30T19:13:57.417Z,690.80
2018-12-30T19:16:29.037Z,679.60
2018-12-30T19:19:00.763Z,653.40
2018-12-30T19:21:32.240Z,657.00
2018-12-30T19:24:03.921Z,661.80
2018-12-30T19:26:35.504Z,620.60
2018-12-30T19:29:07.036Z,646.80
2018-12-30T19:31:38.207Z,666.00
2018-12-30T19:34:09.821Z,643.60
2018-12-30T19:36:41.871Z,629.40
2018-12-30T19:39:13.182Z,608.17
2018-12-30T19:41:44.500Z,639.33
2018-12-30T19:44:15.819Z,604.40
2018-12-30T19:46:45.920Z,636.20
2018-12-30T19:49:17.540Z,621.40
2018-12-30T19:51:48.957Z,604.00
2018-12-30T19:54:20.596Z,558.00
2018-12-30T19:56:52.965Z,565.20
2018-12-30T19:59:24.729Z,569.60
2018-12-30T20:01:56.276Z,526.20
2018-12-30T20:04:27.605Z,533.25
2018-12-30T20:06:59.672Z,523.60
2018-12-30T20:09:31.329Z,524.20
2018-12-30T20:12:02.761Z,510.75
2018-12-30T20:14:34.749Z,524.00
2018-12-30T20:17:06.240Z,468.20
2018-12-30T20:19:37.496Z,491.60
2018-12-30T20:22:09.551Z,486.60
2018-12-30T20:24:40.929Z,462.20
2018-12-30T20:27:12.448Z,420.50
2018-12-30T20:29:44.066Z,438.50
2018-12-30T20:32:15.520Z,426.75
2018-12-30T20:34:46.820Z,417.50
2018-12-30T20:37:19.118Z,406.25
2018-12-30T20:39:50.787Z,385.00
2018-12-30T20:42:22.349Z,351.50
2018-12-30T20:44:53.668Z,380.50
2018-12-30T20:47:25.057Z,392.00
2018-12-30T20:49:56.572Z,404.00
2018-12-30T20:52:27.979Z,401.50
2018-12-30T20:54:59.683Z,377.75
2018-12-30T20:57:31.045Z,396.00
2018-12-30T21:00:02.618Z,378.25
2018-12-30T21:02:34.187Z,365.75
2018-12-30T21:05:05.976Z,380.25
2018-12-30T21:07:37.673Z,378.75
2018-12-30T21:10:09.430Z,368.00
2018-12-30T21:12:40.866Z,372.75
2018-12-30T21:15:12.304Z,362.50
2018-12-30T21:17:43.950Z,375.00
2018-12-30T21:20:16.164Z,372.75
2018-12-30T21:22:47.575Z,345.25
2018-12-30T21:25:19.631Z,366.75
2018-12-30T21:27:51.278Z,361.50
2018-12-30T21:30:22.857Z,360.00
2018-12-30T21:32:54.366Z,356.50
2018-12-30T21:35:25.819Z,354.75
2018-12-30T21:37:57.616Z,356.50
2018-12-30T21:40:28.969Z,347.25
2018-12-30T21:43:00.478Z,313.25
2018-12-30T21:45:32.737Z,346.50
2018-12-30T21:48:04.391Z,330.75
2018-12-30T21:50:36.025Z,359.25
2018-12-30T21:53:07.558Z,360.25
2018-12-30T21:55:39.069Z,351.50
2018-12-30T21:58:10.346Z,342.75
2018-12-30T22:00:41.689Z,345.00
2018-12-30T22:03:13.269Z,339.50
2018-12-30T22:05:44.719Z,343.00
2018-12-30T22:08:16.815Z,337.75
2018-12-30T22:10:48.261Z,321.50
2018-12-30T22:13:19.985Z,328.75
2018-12-30T22:15:51.385Z,304.50
2018-12-30T22:18:22.786Z,317.50
2018-12-30T22:20:53.991Z,299.50
2018-12-30T22:23:25.493Z,324.00
2018-12-30T22:25:57.488Z,323.50
2018-12-30T22:28:29.252Z,311.25
2018-12-30T22:31:01.178Z,337.25
2018-12-30T22:33:32.474Z,330.50
2018-12-30T22:36:03.772Z,325.50
2018-12-30T22:38:35.831Z,313.75
2018-12-30T22:41:07.549Z,320.50
2018-12-30T22:43:39.229Z,312.75
2018-12-30T22:46:10.689Z,311.25
2018-12-30T22:48:42.368Z,302.75
2018-12-30T22:51:13.962Z,307.00
2018-12-30T22:53:45.601Z,317.25
2018-12-30T22:56:17.243Z,334.75
2018-12-30T22:58:49.238Z,303.75
2018-12-30T23:01:25.403Z,309.75
2018-12-30T23:03:56.802Z,297.75
2018-12-30T23:06:29.132Z,312.25
2018-12-30T23:09:01.333Z,323.00
2018-12-30T23:11:34.193Z,320.00
2018-12-30T23:14:05.398Z,322.75
2018-12-30T23:16:36.696Z,303.50
2018-12-30T23:19:08.309Z,316.50
2018-12-30T23:21:39.612Z,306.75
2018-12-30T23:24:10.969Z,309.50
2018-12-30T23:26:43.235Z,318.50
2018-12-30T23:29:14.854Z,303.00
2018-12-30T23:31:46.077Z,318.75
2018-12-30T23:34:17.653Z,317.00
2018-12-30T23:36:49.287Z,317.25
2018-12-30T23:39:21.290Z,321.00
2018-12-30T23:41:52.949Z,310.00
2018-12-30T23:44:24.608Z,317.00
2018-12-30T23:46:56.538Z,321.00
2018-12-30T23:49:27.913Z,334.75
2018-12-30T23:51:59.541Z,318.75
2018-12-30T23:54:30.760Z,330.25
2018-12-30T23:57:02.424Z,342.00
2018-12-30T23:59:33.768Z,340.50
